sensor_id;sensor_type;location;lat;lon;timestamp;temperature;humidity
18131;DHT22;9191;54.324;10.126;2023-01-19T00:02:23;1.70;99.90
18131;DHT22;9191;54.324;10.126;2023-01-19T00:04:50;1.70;99.90
18131;DHT22;9191;54.324;10.126;2023-01-19T00:07:18;1.70;99.90
18131;DHT22;9191;54.324;10.126;2023-01-19T00:09:45;1.70;99.90
18131;DHT22;9191;54.324;10.126;2023-01-19T00:12:11;1.70;99.90
18131;DHT22;9191;54.324;10.126;2023-01-19T00:14:38;1.70;99.90
18131;DHT22;9191;54.324;10.126;2023-01-19T00:17:05;1.80;99.90
18131;DHT22;9191;54.324;10.126;2023-01-19T00:19:31;1.80;99.90
18131;DHT22;9191;54.324;10.126;2023-01-19T00:21:58;1.80;99.90
18131;DHT22;9191;54.324;10.126;2023-01-19T00:24:26;1.90;99.90
18131;DHT22;9191;54.324;10.126;2023-01-19T00:26:53;1.80;99.90
18131;DHT22;9191;54.324;10.126;2023-01-19T00:29:19;1.80;99.90
18131;DHT22;9191;54.324;10.126;2023-01-19T00:31:46;1.90;99.90
18131;DHT22;9191;54.324;10.126;2023-01-19T00:34:13;1.90;99.90
18131;DHT22;9191;54.324;10.126;2023-01-19T00:36:39;1.90;99.90
18131;DHT22;9191;54.324;10.126;2023-01-19T00:39:06;2.00;99.90
18131;DHT22;9191;54.324;10.126;2023-01-19T00:41:34;2.10;99.90
18131;DHT22;9191;54.324;10.126;2023-01-19T00:44:18;2.10;99.90
18131;DHT22;9191;54.324;10.126;2023-01-19T00:46:45;2.20;99.90
18131;DHT22;9191;54.324;10.126;2023-01-19T00:49:12;2.20;99.90
18131;DHT22;9191;54.324;10.126;2023-01-19T00:51:38;2.20;99.90
18131;DHT22;9191;54.324;10.126;2023-01-19T00:54:05;2.20;99.90
18131;DHT22;9191;54.324;10.126;2023-01-19T00:56:36;2.30;99.90
18131;DHT22;9191;54.324;10.126;2023-01-19T00:59:03;2.30;99.90
18131;DHT22;9191;54.324;10.126;2023-01-19T01:01:29;2.30;99.90
18131;DHT22;9191;54.324;10.126;2023-01-19T01:03:56;2.40;99.90
18131;DHT22;9191;54.324;10.126;2023-01-19T01:06:23;2.40;99.90
18131;DHT22;9191;54.324;10.126;2023-01-19T01:08:49;2.40;99.90
18131;DHT22;9191;54.324;10.126;2023-01-19T01:11:16;2.40;99.90
18131;DHT22;9191;54.324;10.126;2023-01-19T01:13:46;2.50;99.90
18131;DHT22;9191;54.324;10.126;2023-01-19T01:16:13;2.50;99.90
18131;DHT22;9191;54.324;10.126;2023-01-19T01:18:40;2.40;99.90
18131;DHT22;9191;54.324;10.126;2023-01-19T01:21:09;2.40;99.90
18131;DHT22;9191;54.324;10.126;2023-01-19T01:23:37;2.40;99.90
18131;DHT22;9191;54.324;10.126;2023-01-19T01:26:03;2.40;99.90
18131;DHT22;9191;54.324;10.126;2023-01-19T01:28:30;2.40;99.90
18131;DHT22;9191;54.324;10.126;2023-01-19T01:30:59;2.40;99.90
18131;DHT22;9191;54.324;10.126;2023-01-19T01:33:25;2.30;99.90
18131;DHT22;9191;54.324;10.126;2023-01-19T01:35:52;2.40;99.90
18131;DHT22;9191;54.324;10.126;2023-01-19T01:38:19;2.40;99.90
18131;DHT22;9191;54.324;10.126;2023-01-19T01:40:45;2.50;99.90
18131;DHT22;9191;54.324;10.126;2023-01-19T01:43:12;2.50;99.90
18131;DHT22;9191;54.324;10.126;2023-01-19T01:45:39;2.60;99.90
18131;DHT22;9191;54.324;10.126;2023-01-19T01:48:08;2.60;99.90
18131;DHT22;9191;54.324;10.126;2023-01-19T01:50:36;2.60;99.90
18131;DHT22;9191;54.324;10.126;2023-01-19T01:53:04;2.70;99.90
18131;DHT22;9191;54.324;10.126;2023-01-19T01:55:34;2.60;99.90
18131;DHT22;9191;54.324;10.126;2023-01-19T01:58:02;2.60;99.90
18131;DHT22;9191;54.324;10.126;2023-01-19T02:00:29;2.70;99.90
18131;DHT22;9191;54.324;10.126;2023-01-19T02:03:18;2.70;99.90
18131;DHT22;9191;54.324;10.126;2023-01-19T02:05:44;2.70;99.90
18131;DHT22;9191;54.324;10.126;2023-01-19T02:08:11;2.70;99.90
18131;DHT22;9191;54.324;10.126;2023-01-19T02:10:57;2.80;99.90
18131;DHT22;9191;54.324;10.126;2023-01-19T02:13:42;2.80;99.90
18131;DHT22;9191;54.324;10.126;2023-01-19T02:16:09;2.80;99.90
18131;DHT22;9191;54.324;10.126;2023-01-19T02:18:38;2.80;99.90
18131;DHT22;9191;54.324;10.126;2023-01-19T02:21:07;2.70;99.90
18131;DHT22;9191;54.324;10.126;2023-01-19T02:23:38;2.80;99.90
18131;DHT22;9191;54.324;10.126;2023-01-19T02:26:06;2.80;99.90
18131;DHT22;9191;54.324;10.126;2023-01-19T02:28:33;2.80;99.90
18131;DHT22;9191;54.324;10.126;2023-01-19T02:31:04;2.80;99.90
18131;DHT22;9191;54.324;10.126;2023-01-19T02:33:31;2.80;99.90
18131;DHT22;9191;54.324;10.126;2023-01-19T02:35:57;2.70;99.90
18131;DHT22;9191;54.324;10.126;2023-01-19T02:38:25;2.80;99.90
18131;DHT22;9191;54.324;10.126;2023-01-19T02:40:54;2.80;99.90
18131;DHT22;9191;54.324;10.126;2023-01-19T02:43:25;2.80;99.90
18131;DHT22;9191;54.324;10.126;2023-01-19T02:45:55;2.80;99.90
18131;DHT22;9191;54.324;10.126;2023-01-19T02:48:21;2.70;99.90
18131;DHT22;9191;54.324;10.126;2023-01-19T02:50:48;2.70;99.90
18131;DHT22;9191;54.324;10.126;2023-01-19T02:53:31;2.70;99.90
18131;DHT22;9191;54.324;10.126;2023-01-19T02:56:02;2.70;99.90
18131;DHT22;9191;54.324;10.126;2023-01-19T02:58:32;2.80;99.90
18131;DHT22;9191;54.324;10.126;2023-01-19T03:01:03;2.80;99.90
18131;DHT22;9191;54.324;10.126;2023-01-19T03:03:35;2.80;99.90
18131;DHT22;9191;54.324;10.126;2023-01-19T03:06:05;2.80;99.90
18131;DHT22;9191;54.324;10.126;2023-01-19T03:08:38;2.70;99.90
18131;DHT22;9191;54.324;10.126;2023-01-19T03:11:11;2.80;99.90
18131;DHT22;9191;54.324;10.126;2023-01-19T03:13:40;2.80;99.90
18131;DHT22;9191;54.324;10.126;2023-01-19T03:16:10;2.80;99.90
18131;DHT22;9191;54.324;10.126;2023-01-19T03:18:37;2.80;99.90
18131;DHT22;9191;54.324;10.126;2023-01-19T03:21:07;2.90;99.90
18131;DHT22;9191;54.324;10.126;2023-01-19T03:23:35;2.90;99.90
18131;DHT22;9191;54.324;10.126;2023-01-19T03:26:03;2.90;99.90
18131;DHT22;9191;54.324;10.126;2023-01-19T03:28:32;2.90;99.90
18131;DHT22;9191;54.324;10.126;2023-01-19T03:31:01;2.90;99.90
18131;DHT22;9191;54.324;10.126;2023-01-19T03:33:30;2.90;99.90
18131;DHT22;9191;54.324;10.126;2023-01-19T03:35:58;2.90;99.90
18131;DHT22;9191;54.324;10.126;2023-01-19T03:38:30;2.90;99.90
18131;DHT22;9191;54.324;10.126;2023-01-19T03:41:01;2.90;99.90
18131;DHT22;9191;54.324;10.126;2023-01-19T03:43:28;2.90;99.90
18131;DHT22;9191;54.324;10.126;2023-01-19T03:45:57;2.80;99.90
18131;DHT22;9191;54.324;10.126;2023-01-19T03:48:24;2.80;99.90
18131;DHT22;9191;54.324;10.126;2023-01-19T03:50:51;2.80;99.90
18131;DHT22;9191;54.324;10.126;2023-01-19T03:53:27;2.80;99.90
18131;DHT22;9191;54.324;10.126;2023-01-19T03:55:54;2.80;99.90
18131;DHT22;9191;54.324;10.126;2023-01-19T03:58:21;2.90;99.90
18131;DHT22;9191;54.324;10.126;2023-01-19T04:00:48;2.90;99.90
18131;DHT22;9191;54.324;10.126;2023-01-19T04:03:19;2.90;99.90
18131;DHT22;9191;54.324;10.126;2023-01-19T04:05:46;2.80;99.90
18131;DHT22;9191;54.324;10.126;2023-01-19T04:08:12;2.90;99.90
18131;DHT22;9191;54.324;10.126;2023-01-19T04:10:39;2.80;99.90
18131;DHT22;9191;54.324;10.126;2023-01-19T04:13:08;2.90;99.90
18131;DHT22;9191;54.324;10.126;2023-01-19T04:15:35;2.90;99.90
18131;DHT22;9191;54.324;10.126;2023-01-19T04:18:02;2.80;99.90
18131;DHT22;9191;54.324;10.126;2023-01-19T04:20:31;2.90;99.90
18131;DHT22;9191;54.324;10.126;2023-01-19T04:22:58;2.90;99.90
18131;DHT22;9191;54.324;10.126;2023-01-19T04:25:25;2.90;99.90
18131;DHT22;9191;54.324;10.126;2023-01-19T04:27:52;3.00;99.90
18131;DHT22;9191;54.324;10.126;2023-01-19T04:30:19;3.00;99.90
18131;DHT22;9191;54.324;10.126;2023-01-19T04:32:46;3.00;99.90
18131;DHT22;9191;54.324;10.126;2023-01-19T04:35:13;3.00;99.90
18131;DHT22;9191;54.324;10.126;2023-01-19T04:37:42;3.10;99.90
18131;DHT22;9191;54.324;10.126;2023-01-19T04:40:10;3.00;99.90
18131;DHT22;9191;54.324;10.126;2023-01-19T04:42:37;3.00;99.90
18131;DHT22;9191;54.324;10.126;2023-01-19T04:45:04;3.00;99.90
18131;DHT22;9191;54.324;10.126;2023-01-19T04:47:31;3.00;99.90
18131;DHT22;9191;54.324;10.126;2023-01-19T04:49:57;3.10;99.90
18131;DHT22;9191;54.324;10.126;2023-01-19T04:52:30;3.10;99.90
18131;DHT22;9191;54.324;10.126;2023-01-19T04:55:00;3.00;99.90
18131;DHT22;9191;54.324;10.126;2023-01-19T04:57:27;3.00;99.90
18131;DHT22;9191;54.324;10.126;2023-01-19T04:59:54;3.10;99.90
18131;DHT22;9191;54.324;10.126;2023-01-19T05:02:21;3.10;99.90
18131;DHT22;9191;54.324;10.126;2023-01-19T05:04:50;3.00;99.90
18131;DHT22;9191;54.324;10.126;2023-01-19T05:07:17;3.00;99.90
18131;DHT22;9191;54.324;10.126;2023-01-19T05:09:43;3.00;99.90
18131;DHT22;9191;54.324;10.126;2023-01-19T05:12:11;3.10;99.90
18131;DHT22;9191;54.324;10.126;2023-01-19T05:14:38;3.00;99.90
18131;DHT22;9191;54.324;10.126;2023-01-19T05:17:05;3.00;99.90
18131;DHT22;9191;54.324;10.126;2023-01-19T05:19:32;3.00;99.90
18131;DHT22;9191;54.324;10.126;2023-01-19T05:21:59;3.10;99.90
18131;DHT22;9191;54.324;10.126;2023-01-19T05:24:27;3.00;99.90
18131;DHT22;9191;54.324;10.126;2023-01-19T05:26:53;3.10;99.90
18131;DHT22;9191;54.324;10.126;2023-01-19T05:29:22;3.00;99.90
18131;DHT22;9191;54.324;10.126;2023-01-19T05:31:51;3.00;99.90
18131;DHT22;9191;54.324;10.126;2023-01-19T05:34:20;3.10;99.90
18131;DHT22;9191;54.324;10.126;2023-01-19T05:36:47;3.10;99.90
18131;DHT22;9191;54.324;10.126;2023-01-19T05:39:14;3.00;99.90
18131;DHT22;9191;54.324;10.126;2023-01-19T05:41:40;3.10;99.90
18131;DHT22;9191;54.324;10.126;2023-01-19T05:44:09;3.00;99.90
18131;DHT22;9191;54.324;10.126;2023-01-19T05:46:37;3.10;99.90
18131;DHT22;9191;54.324;10.126;2023-01-19T05:49:03;3.10;99.90
18131;DHT22;9191;54.324;10.126;2023-01-19T05:51:32;3.10;99.90
18131;DHT22;9191;54.324;10.126;2023-01-19T05:54:02;3.10;99.90
18131;DHT22;9191;54.324;10.126;2023-01-19T05:56:29;3.10;99.90
18131;DHT22;9191;54.324;10.126;2023-01-19T05:58:56;3.10;99.90
18131;DHT22;9191;54.324;10.126;2023-01-19T06:01:22;3.10;99.90
18131;DHT22;9191;54.324;10.126;2023-01-19T06:03:50;3.00;99.90
18131;DHT22;9191;54.324;10.126;2023-01-19T06:06:17;2.90;99.90
18131;DHT22;9191;54.324;10.126;2023-01-19T06:08:44;2.80;99.90
18131;DHT22;9191;54.324;10.126;2023-01-19T06:11:10;2.70;99.90
18131;DHT22;9191;54.324;10.126;2023-01-19T06:13:37;2.60;99.90
18131;DHT22;9191;54.324;10.126;2023-01-19T06:16:09;2.60;99.90
18131;DHT22;9191;54.324;10.126;2023-01-19T06:18:36;2.60;99.90
18131;DHT22;9191;54.324;10.126;2023-01-19T06:21:05;2.60;99.90
18131;DHT22;9191;54.324;10.126;2023-01-19T06:23:32;2.70;99.90
18131;DHT22;9191;54.324;10.126;2023-01-19T06:25:59;2.70;99.90
18131;DHT22;9191;54.324;10.126;2023-01-19T06:28:26;2.70;99.90
18131;DHT22;9191;54.324;10.126;2023-01-19T06:30:53;2.70;99.90
18131;DHT22;9191;54.324;10.126;2023-01-19T06:33:22;2.70;99.90
18131;DHT22;9191;54.324;10.126;2023-01-19T06:35:50;2.80;99.90
18131;DHT22;9191;54.324;10.126;2023-01-19T06:38:18;2.80;99.90
18131;DHT22;9191;54.324;10.126;2023-01-19T06:40:50;2.80;99.90
18131;DHT22;9191;54.324;10.126;2023-01-19T06:43:16;2.90;99.90
18131;DHT22;9191;54.324;10.126;2023-01-19T06:45:44;2.90;99.90
18131;DHT22;9191;54.324;10.126;2023-01-19T06:48:11;2.80;99.90
18131;DHT22;9191;54.324;10.126;2023-01-19T06:50:38;2.90;99.90
18131;DHT22;9191;54.324;10.126;2023-01-19T06:53:05;2.90;99.90
18131;DHT22;9191;54.324;10.126;2023-01-19T06:55:33;2.90;99.90
18131;DHT22;9191;54.324;10.126;2023-01-19T06:58:03;2.90;99.90
18131;DHT22;9191;54.324;10.126;2023-01-19T07:00:32;2.90;99.90
18131;DHT22;9191;54.324;10.126;2023-01-19T07:02:59;2.80;99.90
18131;DHT22;9191;54.324;10.126;2023-01-19T07:05:25;2.90;99.90
18131;DHT22;9191;54.324;10.126;2023-01-19T07:07:52;2.80;99.90
18131;DHT22;9191;54.324;10.126;2023-01-19T07:10:19;2.80;99.90
18131;DHT22;9191;54.324;10.126;2023-01-19T07:12:47;2.80;99.90
18131;DHT22;9191;54.324;10.126;2023-01-19T07:15:17;2.90;99.90
18131;DHT22;9191;54.324;10.126;2023-01-19T07:17:47;2.80;99.90
18131;DHT22;9191;54.324;10.126;2023-01-19T07:20:14;2.80;99.90
18131;DHT22;9191;54.324;10.126;2023-01-19T07:22:41;2.80;99.90
18131;DHT22;9191;54.324;10.126;2023-01-19T07:25:10;2.80;99.90
18131;DHT22;9191;54.324;10.126;2023-01-19T07:27:36;2.90;99.90
18131;DHT22;9191;54.324;10.126;2023-01-19T07:30:07;2.90;99.90
18131;DHT22;9191;54.324;10.126;2023-01-19T07:32:34;2.90;99.90
18131;DHT22;9191;54.324;10.126;2023-01-19T07:35:01;2.90;99.90
18131;DHT22;9191;54.324;10.126;2023-01-19T07:37:28;2.90;99.90
18131;DHT22;9191;54.324;10.126;2023-01-19T07:39:54;2.90;99.90
18131;DHT22;9191;54.324;10.126;2023-01-19T07:42:21;2.90;99.90
18131;DHT22;9191;54.324;10.126;2023-01-19T07:44:48;2.90;99.90
18131;DHT22;9191;54.324;10.126;2023-01-19T07:47:17;2.80;99.90
18131;DHT22;9191;54.324;10.126;2023-01-19T07:49:44;2.80;99.90
18131;DHT22;9191;54.324;10.126;2023-01-19T07:52:11;2.90;99.90
18131;DHT22;9191;54.324;10.126;2023-01-19T07:54:37;2.90;99.90
18131;DHT22;9191;54.324;10.126;2023-01-19T07:57:04;3.00;99.90
18131;DHT22;9191;54.324;10.126;2023-01-19T07:59:31;3.00;99.90
18131;DHT22;9191;54.324;10.126;2023-01-19T08:01:58;3.00;99.90
18131;DHT22;9191;54.324;10.126;2023-01-19T08:04:26;3.00;99.90
18131;DHT22;9191;54.324;10.126;2023-01-19T08:06:52;3.00;99.90
18131;DHT22;9191;54.324;10.126;2023-01-19T08:09:19;3.00;99.90
18131;DHT22;9191;54.324;10.126;2023-01-19T08:11:46;3.00;99.90
18131;DHT22;9191;54.324;10.126;2023-01-19T08:14:13;3.10;99.90
18131;DHT22;9191;54.324;10.126;2023-01-19T08:16:39;3.00;99.90
18131;DHT22;9191;54.324;10.126;2023-01-19T08:19:06;3.00;99.90
18131;DHT22;9191;54.324;10.126;2023-01-19T08:21:34;3.00;99.90
18131;DHT22;9191;54.324;10.126;2023-01-19T08:24:03;3.00;99.90
18131;DHT22;9191;54.324;10.126;2023-01-19T08:26:30;3.00;99.90
18131;DHT22;9191;54.324;10.126;2023-01-19T08:28:58;2.90;99.90
18131;DHT22;9191;54.324;10.126;2023-01-19T08:31:25;2.90;99.90
18131;DHT22;9191;54.324;10.126;2023-01-19T08:33:52;2.90;99.90
18131;DHT22;9191;54.324;10.126;2023-01-19T08:36:18;2.80;99.90
18131;DHT22;9191;54.324;10.126;2023-01-19T08:38:47;2.80;99.90
18131;DHT22;9191;54.324;10.126;2023-01-19T08:41:14;2.80;99.90
18131;DHT22;9191;54.324;10.126;2023-01-19T08:43:41;2.80;99.90
18131;DHT22;9191;54.324;10.126;2023-01-19T08:46:08;2.80;99.90
18131;DHT22;9191;54.324;10.126;2023-01-19T08:48:35;2.90;99.90
18131;DHT22;9191;54.324;10.126;2023-01-19T08:51:02;2.90;99.90
18131;DHT22;9191;54.324;10.126;2023-01-19T08:53:30;2.90;99.90
18131;DHT22;9191;54.324;10.126;2023-01-19T08:55:58;2.90;99.90
18131;DHT22;9191;54.324;10.126;2023-01-19T08:58:25;2.90;99.90
18131;DHT22;9191;54.324;10.126;2023-01-19T09:00:52;2.90;99.90
18131;DHT22;9191;54.324;10.126;2023-01-19T09:03:19;3.00;99.90
18131;DHT22;9191;54.324;10.126;2023-01-19T09:05:47;3.00;99.90
18131;DHT22;9191;54.324;10.126;2023-01-19T09:08:14;3.00;99.90
18131;DHT22;9191;54.324;10.126;2023-01-19T09:10:43;3.00;99.90
18131;DHT22;9191;54.324;10.126;2023-01-19T09:13:11;3.10;99.90
18131;DHT22;9191;54.324;10.126;2023-01-19T09:15:39;3.10;99.90
18131;DHT22;9191;54.324;10.126;2023-01-19T09:18:06;3.20;99.90
18131;DHT22;9191;54.324;10.126;2023-01-19T09:20:34;3.30;99.90
18131;DHT22;9191;54.324;10.126;2023-01-19T09:23:03;3.30;99.90
18131;DHT22;9191;54.324;10.126;2023-01-19T09:25:30;3.40;99.90
18131;DHT22;9191;54.324;10.126;2023-01-19T09:27:57;3.40;99.90
18131;DHT22;9191;54.324;10.126;2023-01-19T09:30:25;3.50;99.90
18131;DHT22;9191;54.324;10.126;2023-01-19T09:32:52;3.50;99.90
18131;DHT22;9191;54.324;10.126;2023-01-19T09:35:19;3.50;99.90
18131;DHT22;9191;54.324;10.126;2023-01-19T09:37:46;3.50;99.90
18131;DHT22;9191;54.324;10.126;2023-01-19T09:40:13;3.50;99.90
18131;DHT22;9191;54.324;10.126;2023-01-19T09:42:41;3.60;99.90
18131;DHT22;9191;54.324;10.126;2023-01-19T09:45:10;3.60;99.90
18131;DHT22;9191;54.324;10.126;2023-01-19T09:47:43;3.70;99.90
18131;DHT22;9191;54.324;10.126;2023-01-19T09:50:12;5.00;99.90
18131;DHT22;9191;54.324;10.126;2023-01-19T09:52:42;6.30;99.90
18131;DHT22;9191;54.324;10.126;2023-01-19T09:55:16;7.10;99.90
18131;DHT22;9191;54.324;10.126;2023-01-19T09:57:44;6.00;99.90
18131;DHT22;9191;54.324;10.126;2023-01-19T10:00:12;5.20;99.90
18131;DHT22;9191;54.324;10.126;2023-01-19T10:02:41;4.80;99.90
18131;DHT22;9191;54.324;10.126;2023-01-19T10:05:13;4.60;99.90
18131;DHT22;9191;54.324;10.126;2023-01-19T10:07:50;4.40;99.90
18131;DHT22;9191;54.324;10.126;2023-01-19T10:10:23;4.20;99.90
18131;DHT22;9191;54.324;10.126;2023-01-19T10:12:53;4.10;99.90
18131;DHT22;9191;54.324;10.126;2023-01-19T10:15:25;4.00;99.90
18131;DHT22;9191;54.324;10.126;2023-01-19T10:18:00;3.90;99.90
18131;DHT22;9191;54.324;10.126;2023-01-19T10:20:32;3.90;99.90
18131;DHT22;9191;54.324;10.126;2023-01-19T10:23:05;3.90;99.90
18131;DHT22;9191;54.324;10.126;2023-01-19T10:25:44;3.90;99.90
18131;DHT22;9191;54.324;10.126;2023-01-19T10:28:15;3.90;99.90
18131;DHT22;9191;54.324;10.126;2023-01-19T10:30:42;3.90;99.90
18131;DHT22;9191;54.324;10.126;2023-01-19T10:33:12;3.90;99.90
18131;DHT22;9191;54.324;10.126;2023-01-19T10:35:41;4.00;99.90
18131;DHT22;9191;54.324;10.126;2023-01-19T10:38:10;4.00;99.90
18131;DHT22;9191;54.324;10.126;2023-01-19T10:40:41;4.00;99.90
18131;DHT22;9191;54.324;10.126;2023-01-19T10:46:00;4.00;99.90
18131;DHT22;9191;54.324;10.126;2023-01-19T10:48:27;4.10;99.90
18131;DHT22;9191;54.324;10.126;2023-01-19T10:51:03;4.00;99.90
18131;DHT22;9191;54.324;10.126;2023-01-19T10:53:31;4.10;99.90
18131;DHT22;9191;54.324;10.126;2023-01-19T10:56:13;4.10;99.90
18131;DHT22;9191;54.324;10.126;2023-01-19T10:58:40;4.00;99.90
18131;DHT22;9191;54.324;10.126;2023-01-19T11:01:17;4.00;99.90
18131;DHT22;9191;54.324;10.126;2023-01-19T11:03:44;4.10;99.90
18131;DHT22;9191;54.324;10.126;2023-01-19T11:06:25;3.90;99.90
18131;DHT22;9191;54.324;10.126;2023-01-19T11:08:53;3.90;99.90
18131;DHT22;9191;54.324;10.126;2023-01-19T11:11:40;4.10;99.90
18131;DHT22;9191;54.324;10.126;2023-01-19T11:14:11;4.00;99.90
18131;DHT22;9191;54.324;10.126;2023-01-19T11:16:38;3.90;99.90
18131;DHT22;9191;54.324;10.126;2023-01-19T11:19:05;3.90;99.90
18131;DHT22;9191;54.324;10.126;2023-01-19T11:21:41;3.90;99.90
18131;DHT22;9191;54.324;10.126;2023-01-19T11:24:08;3.90;99.90
18131;DHT22;9191;54.324;10.126;2023-01-19T11:26:38;3.90;99.90
18131;DHT22;9191;54.324;10.126;2023-01-19T11:29:11;3.80;99.90
18131;DHT22;9191;54.324;10.126;2023-01-19T11:31:40;3.80;99.90
18131;DHT22;9191;54.324;10.126;2023-01-19T11:34:21;3.80;99.90
18131;DHT22;9191;54.324;10.126;2023-01-19T11:36:55;3.90;99.90
18131;DHT22;9191;54.324;10.126;2023-01-19T11:39:22;4.00;99.90
18131;DHT22;9191;54.324;10.126;2023-01-19T11:41:50;3.90;99.90
18131;DHT22;9191;54.324;10.126;2023-01-19T11:44:19;3.80;99.90
18131;DHT22;9191;54.324;10.126;2023-01-19T11:46:47;3.80;99.90
18131;DHT22;9191;54.324;10.126;2023-01-19T11:49:18;3.70;99.90
18131;DHT22;9191;54.324;10.126;2023-01-19T11:51:48;3.70;99.90
18131;DHT22;9191;54.324;10.126;2023-01-19T11:54:18;3.70;99.90
18131;DHT22;9191;54.324;10.126;2023-01-19T11:56:47;3.70;99.90
18131;DHT22;9191;54.324;10.126;2023-01-19T11:59:16;3.80;99.90
18131;DHT22;9191;54.324;10.126;2023-01-19T12:01:44;3.80;99.90
18131;DHT22;9191;54.324;10.126;2023-01-19T12:04:13;3.90;99.90
18131;DHT22;9191;54.324;10.126;2023-01-19T12:06:43;3.80;99.90
18131;DHT22;9191;54.324;10.126;2023-01-19T12:09:16;3.80;99.90
18131;DHT22;9191;54.324;10.126;2023-01-19T12:11:47;4.00;99.90
18131;DHT22;9191;54.324;10.126;2023-01-19T12:14:15;4.00;99.90
18131;DHT22;9191;54.324;10.126;2023-01-19T12:16:43;4.10;99.90
18131;DHT22;9191;54.324;10.126;2023-01-19T12:19:12;4.20;99.90
18131;DHT22;9191;54.324;10.126;2023-01-19T12:21:42;4.20;99.90
18131;DHT22;9191;54.324;10.126;2023-01-19T12:24:12;4.20;99.90
18131;DHT22;9191;54.324;10.126;2023-01-19T12:26:45;4.20;99.90
18131;DHT22;9191;54.324;10.126;2023-01-19T12:29:16;4.20;99.90
18131;DHT22;9191;54.324;10.126;2023-01-19T12:31:44;4.10;99.90
18131;DHT22;9191;54.324;10.126;2023-01-19T12:34:27;4.10;99.90
18131;DHT22;9191;54.324;10.126;2023-01-19T12:36:57;4.20;99.90
18131;DHT22;9191;54.324;10.126;2023-01-19T12:39:27;4.10;99.90
18131;DHT22;9191;54.324;10.126;2023-01-19T12:42:02;4.10;99.90
18131;DHT22;9191;54.324;10.126;2023-01-19T12:44:32;4.10;99.90
18131;DHT22;9191;54.324;10.126;2023-01-19T12:49:41;4.10;99.90
18131;DHT22;9191;54.324;10.126;2023-01-19T12:52:09;4.10;99.90
18131;DHT22;9191;54.324;10.126;2023-01-19T12:54:39;4.10;99.90
18131;DHT22;9191;54.324;10.126;2023-01-19T12:57:07;4.10;99.90
18131;DHT22;9191;54.324;10.126;2023-01-19T12:59:35;4.10;99.90
18131;DHT22;9191;54.324;10.126;2023-01-19T13:07:29;4.20;99.90
18131;DHT22;9191;54.324;10.126;2023-01-19T13:09:56;4.30;99.90
18131;DHT22;9191;54.324;10.126;2023-01-19T13:12:23;4.30;99.90
18131;DHT22;9191;54.324;10.126;2023-01-19T13:14:51;4.30;99.90
18131;DHT22;9191;54.324;10.126;2023-01-19T13:17:39;4.20;99.90
18131;DHT22;9191;54.324;10.126;2023-01-19T13:20:21;4.20;99.90
18131;DHT22;9191;54.324;10.126;2023-01-19T13:23:10;4.30;99.90
18131;DHT22;9191;54.324;10.126;2023-01-19T13:25:40;4.40;99.90
18131;DHT22;9191;54.324;10.126;2023-01-19T13:28:09;4.50;99.90
18131;DHT22;9191;54.324;10.126;2023-01-19T13:30:43;4.40;99.90
18131;DHT22;9191;54.324;10.126;2023-01-19T13:33:14;4.70;99.90
18131;DHT22;9191;54.324;10.126;2023-01-19T13:35:47;4.80;99.90
18131;DHT22;9191;54.324;10.126;2023-01-19T13:38:14;4.90;99.90
18131;DHT22;9191;54.324;10.126;2023-01-19T13:40:41;4.90;99.90
18131;DHT22;9191;54.324;10.126;2023-01-19T13:43:12;4.90;99.90
18131;DHT22;9191;54.324;10.126;2023-01-19T13:45:44;4.90;99.90
18131;DHT22;9191;54.324;10.126;2023-01-19T13:48:13;4.90;99.90
18131;DHT22;9191;54.324;10.126;2023-01-19T13:50:54;4.90;99.90
18131;DHT22;9191;54.324;10.126;2023-01-19T13:53:21;4.90;99.90
18131;DHT22;9191;54.324;10.126;2023-01-19T13:58:30;4.80;99.90
18131;DHT22;9191;54.324;10.126;2023-01-19T14:00:58;4.80;99.90
18131;DHT22;9191;54.324;10.126;2023-01-19T14:03:25;4.60;99.90
18131;DHT22;9191;54.324;10.126;2023-01-19T14:05:52;4.70;99.90
18131;DHT22;9191;54.324;10.126;2023-01-19T14:08:20;4.60;99.90
18131;DHT22;9191;54.324;10.126;2023-01-19T14:10:58;4.70;99.90
18131;DHT22;9191;54.324;10.126;2023-01-19T14:13:26;4.80;99.90
18131;DHT22;9191;54.324;10.126;2023-01-19T14:15:54;4.80;99.90
18131;DHT22;9191;54.324;10.126;2023-01-19T14:18:24;4.80;99.90
18131;DHT22;9191;54.324;10.126;2023-01-19T14:20:52;4.80;99.90
18131;DHT22;9191;54.324;10.126;2023-01-19T14:23:35;4.80;99.90
18131;DHT22;9191;54.324;10.126;2023-01-19T14:26:02;4.80;99.90
18131;DHT22;9191;54.324;10.126;2023-01-19T14:28:31;4.70;99.90
18131;DHT22;9191;54.324;10.126;2023-01-19T14:31:04;4.80;99.90
18131;DHT22;9191;54.324;10.126;2023-01-19T14:33:44;4.80;99.90
18131;DHT22;9191;54.324;10.126;2023-01-19T14:36:25;4.70;99.90
18131;DHT22;9191;54.324;10.126;2023-01-19T14:38:52;4.70;99.90
18131;DHT22;9191;54.324;10.126;2023-01-19T14:41:23;4.70;99.90
18131;DHT22;9191;54.324;10.126;2023-01-19T14:43:50;4.60;99.90
18131;DHT22;9191;54.324;10.126;2023-01-19T14:46:20;4.60;99.90
18131;DHT22;9191;54.324;10.126;2023-01-19T14:48:49;4.60;99.90
18131;DHT22;9191;54.324;10.126;2023-01-19T14:51:17;4.60;99.90
18131;DHT22;9191;54.324;10.126;2023-01-19T14:53:45;4.60;99.90
18131;DHT22;9191;54.324;10.126;2023-01-19T14:56:13;4.70;99.90
18131;DHT22;9191;54.324;10.126;2023-01-19T14:58:48;4.80;99.90
18131;DHT22;9191;54.324;10.126;2023-01-19T15:01:15;4.80;99.90
18131;DHT22;9191;54.324;10.126;2023-01-19T15:03:42;4.70;99.90
18131;DHT22;9191;54.324;10.126;2023-01-19T15:06:10;4.70;99.90
18131;DHT22;9191;54.324;10.126;2023-01-19T15:08:38;4.80;99.90
18131;DHT22;9191;54.324;10.126;2023-01-19T15:11:06;4.80;99.90
18131;DHT22;9191;54.324;10.126;2023-01-19T15:13:34;4.80;99.90
18131;DHT22;9191;54.324;10.126;2023-01-19T15:16:00;4.80;99.90
18131;DHT22;9191;54.324;10.126;2023-01-19T15:18:28;4.70;99.90
18131;DHT22;9191;54.324;10.126;2023-01-19T15:20:55;4.80;99.90
18131;DHT22;9191;54.324;10.126;2023-01-19T15:23:28;4.60;99.90
18131;DHT22;9191;54.324;10.126;2023-01-19T15:25:57;4.70;99.90
18131;DHT22;9191;54.324;10.126;2023-01-19T15:28:24;4.50;99.90
18131;DHT22;9191;54.324;10.126;2023-01-19T15:30:51;4.50;99.90
18131;DHT22;9191;54.324;10.126;2023-01-19T15:33:18;4.70;99.90
18131;DHT22;9191;54.324;10.126;2023-01-19T15:35:45;4.50;99.90
18131;DHT22;9191;54.324;10.126;2023-01-19T15:38:12;4.60;99.90
18131;DHT22;9191;54.324;10.126;2023-01-19T15:40:40;4.50;99.90
18131;DHT22;9191;54.324;10.126;2023-01-19T15:43:08;4.60;99.90
18131;DHT22;9191;54.324;10.126;2023-01-19T15:45:35;4.50;99.90
18131;DHT22;9191;54.324;10.126;2023-01-19T15:48:03;4.60;99.90
18131;DHT22;9191;54.324;10.126;2023-01-19T15:50:30;4.60;99.90
18131;DHT22;9191;54.324;10.126;2023-01-19T15:52:56;4.60;99.90
18131;DHT22;9191;54.324;10.126;2023-01-19T15:55:23;4.60;99.90
18131;DHT22;9191;54.324;10.126;2023-01-19T15:57:51;4.50;99.90
18131;DHT22;9191;54.324;10.126;2023-01-19T16:00:19;4.40;99.90
18131;DHT22;9191;54.324;10.126;2023-01-19T16:02:46;4.40;99.90
18131;DHT22;9191;54.324;10.126;2023-01-19T16:05:14;4.50;99.90
18131;DHT22;9191;54.324;10.126;2023-01-19T16:07:41;4.40;99.90
18131;DHT22;9191;54.324;10.126;2023-01-19T16:10:08;4.30;99.90